sensor_id;sensor_type;location;lat;lon;timestamp;P1;durP1;ratioP1;P2;durP2;ratioP2
1699;SDS011;847;48.058;7.810;2023-10-08T00:00:24;6.40;;;3.83;;
1699;SDS011;847;48.058;7.810;2023-10-08T00:03:08;6.67;;;4.67;;
1699;SDS011;847;48.058;7.810;2023-10-08T00:05:35;6.50;;;3.90;;
1699;SDS011;847;48.058;7.810;2023-10-08T00:08:02;8.80;;;4.23;;
1699;SDS011;847;48.058;7.810;2023-10-08T00:10:33;7.63;;;4.33;;
1699;SDS011;847;48.058;7.810;2023-10-08T00:13:02;8.17;;;4.10;;
1699;SDS011;847;48.058;7.810;2023-10-08T00:15:32;6.73;;;4.43;;
1699;SDS011;847;48.058;7.810;2023-10-08T00:18:01;5.70;;;4.10;;
1699;SDS011;847;48.058;7.810;2023-10-08T00:20:30;5.30;;;3.90;;
1699;SDS011;847;48.058;7.810;2023-10-08T00:23:00;6.77;;;4.40;;
1699;SDS011;847;48.058;7.810;2023-10-08T00:25:32;6.60;;;4.10;;
1699;SDS011;847;48.058;7.810;2023-10-08T00:28:06;7.83;;;4.47;;
1699;SDS011;847;48.058;7.810;2023-10-08T00:30:38;6.47;;;4.20;;
1699;SDS011;847;48.058;7.810;2023-10-08T00:33:06;7.53;;;4.10;;
1699;SDS011;847;48.058;7.810;2023-10-08T00:35:37;7.23;;;4.20;;
1699;SDS011;847;48.058;7.810;2023-10-08T00:38:04;7.47;;;4.13;;
1699;SDS011;847;48.058;7.810;2023-10-08T00:40:37;8.00;;;4.50;;
1699;SDS011;847;48.058;7.810;2023-10-08T00:43:06;6.30;;;4.30;;
1699;SDS011;847;48.058;7.810;2023-10-08T00:45:35;4.73;;;3.83;;
1699;SDS011;847;48.058;7.810;2023-10-08T00:48:08;6.97;;;4.90;;
1699;SDS011;847;48.058;7.810;2023-10-08T00:50:36;6.03;;;4.13;;
1699;SDS011;847;48.058;7.810;2023-10-08T00:53:08;6.03;;;4.20;;
1699;SDS011;847;48.058;7.810;2023-10-08T00:55:46;6.50;;;4.40;;
1699;SDS011;847;48.058;7.810;2023-10-08T00:58:19;6.60;;;4.07;;
1699;SDS011;847;48.058;7.810;2023-10-08T01:00:50;5.00;;;3.43;;
1699;SDS011;847;48.058;7.810;2023-10-08T01:03:24;7.10;;;4.97;;
1699;SDS011;847;48.058;7.810;2023-10-08T01:05:52;7.50;;;4.07;;
1699;SDS011;847;48.058;7.810;2023-10-08T01:08:20;6.03;;;3.93;;
1699;SDS011;847;48.058;7.810;2023-10-08T01:10:59;6.50;;;3.70;;
1699;SDS011;847;48.058;7.810;2023-10-08T01:13:43;5.23;;;3.83;;
1699;SDS011;847;48.058;7.810;2023-10-08T01:16:11;5.27;;;3.40;;
1699;SDS011;847;48.058;7.810;2023-10-08T01:18:39;6.33;;;3.50;;
1699;SDS011;847;48.058;7.810;2023-10-08T01:21:12;6.50;;;3.10;;
1699;SDS011;847;48.058;7.810;2023-10-08T01:23:56;7.07;;;4.07;;
1699;SDS011;847;48.058;7.810;2023-10-08T01:26:25;5.83;;;3.80;;
1699;SDS011;847;48.058;7.810;2023-10-08T01:28:54;6.50;;;4.13;;
1699;SDS011;847;48.058;7.810;2023-10-08T01:31:21;4.20;;;3.40;;
1699;SDS011;847;48.058;7.810;2023-10-08T01:33:48;6.00;;;3.73;;
1699;SDS011;847;48.058;7.810;2023-10-08T01:36:21;8.57;;;3.97;;
1699;SDS011;847;48.058;7.810;2023-10-08T01:38:48;5.13;;;3.73;;
1699;SDS011;847;48.058;7.810;2023-10-08T01:41:17;4.67;;;3.27;;
1699;SDS011;847;48.058;7.810;2023-10-08T01:43:54;6.17;;;3.63;;
1699;SDS011;847;48.058;7.810;2023-10-08T01:46:21;5.63;;;3.47;;
1699;SDS011;847;48.058;7.810;2023-10-08T01:48:47;6.53;;;3.43;;
1699;SDS011;847;48.058;7.810;2023-10-08T01:51:18;6.53;;;3.30;;
1699;SDS011;847;48.058;7.810;2023-10-08T01:53:50;6.50;;;3.47;;
1699;SDS011;847;48.058;7.810;2023-10-08T01:56:20;4.50;;;3.37;;
1699;SDS011;847;48.058;7.810;2023-10-08T01:58:47;5.57;;;3.50;;
1699;SDS011;847;48.058;7.810;2023-10-08T02:01:13;5.90;;;3.80;;
1699;SDS011;847;48.058;7.810;2023-10-08T02:03:45;7.97;;;3.80;;
1699;SDS011;847;48.058;7.810;2023-10-08T02:06:12;5.60;;;3.60;;
1699;SDS011;847;48.058;7.810;2023-10-08T02:08:39;5.10;;;3.50;;
1699;SDS011;847;48.058;7.810;2023-10-08T02:11:06;6.90;;;3.50;;
1699;SDS011;847;48.058;7.810;2023-10-08T02:13:35;5.43;;;3.47;;
1699;SDS011;847;48.058;7.810;2023-10-08T02:16:01;4.63;;;3.00;;
1699;SDS011;847;48.058;7.810;2023-10-08T02:18:28;5.10;;;3.53;;
1699;SDS011;847;48.058;7.810;2023-10-08T02:20:55;6.33;;;3.57;;
1699;SDS011;847;48.058;7.810;2023-10-08T02:23:23;4.80;;;3.37;;
1699;SDS011;847;48.058;7.810;2023-10-08T02:25:50;6.67;;;3.40;;
1699;SDS011;847;48.058;7.810;2023-10-08T02:28:17;6.40;;;2.90;;
1699;SDS011;847;48.058;7.810;2023-10-08T02:30:47;5.50;;;3.13;;
1699;SDS011;847;48.058;7.810;2023-10-08T02:33:13;5.07;;;2.90;;
1699;SDS011;847;48.058;7.810;2023-10-08T02:35:40;6.13;;;3.00;;
1699;SDS011;847;48.058;7.810;2023-10-08T02:38:08;6.13;;;3.47;;
1699;SDS011;847;48.058;7.810;2023-10-08T02:40:38;5.23;;;3.23;;
1699;SDS011;847;48.058;7.810;2023-10-08T02:43:09;5.40;;;4.20;;
1699;SDS011;847;48.058;7.810;2023-10-08T02:45:36;4.87;;;3.40;;
1699;SDS011;847;48.058;7.810;2023-10-08T02:48:06;5.40;;;4.00;;
1699;SDS011;847;48.058;7.810;2023-10-08T02:50:37;8.00;;;4.13;;
1699;SDS011;847;48.058;7.810;2023-10-08T02:53:05;7.33;;;3.97;;
1699;SDS011;847;48.058;7.810;2023-10-08T02:55:35;5.23;;;3.60;;
1699;SDS011;847;48.058;7.810;2023-10-08T02:58:07;6.13;;;3.40;;
1699;SDS011;847;48.058;7.810;2023-10-08T03:00:36;5.80;;;3.63;;
1699;SDS011;847;48.058;7.810;2023-10-08T03:03:07;5.33;;;3.63;;
1699;SDS011;847;48.058;7.810;2023-10-08T03:05:40;6.50;;;4.10;;
1699;SDS011;847;48.058;7.810;2023-10-08T03:08:08;6.67;;;4.13;;
1699;SDS011;847;48.058;7.810;2023-10-08T03:10:36;5.27;;;4.17;;
1699;SDS011;847;48.058;7.810;2023-10-08T03:13:03;5.00;;;3.80;;
1699;SDS011;847;48.058;7.810;2023-10-08T03:15:31;6.50;;;3.83;;
1699;SDS011;847;48.058;7.810;2023-10-08T03:18:06;6.17;;;3.70;;
1699;SDS011;847;48.058;7.810;2023-10-08T03:20:39;6.13;;;4.00;;
1699;SDS011;847;48.058;7.810;2023-10-08T03:23:09;5.23;;;3.57;;
1699;SDS011;847;48.058;7.810;2023-10-08T03:25:50;7.00;;;4.03;;
1699;SDS011;847;48.058;7.810;2023-10-08T03:28:22;6.93;;;4.63;;
1699;SDS011;847;48.058;7.810;2023-10-08T03:30:50;6.13;;;3.70;;
1699;SDS011;847;48.058;7.810;2023-10-08T03:33:22;5.40;;;4.07;;
1699;SDS011;847;48.058;7.810;2023-10-08T03:35:49;6.33;;;3.60;;
1699;SDS011;847;48.058;7.810;2023-10-08T03:38:18;6.10;;;4.30;;
1699;SDS011;847;48.058;7.810;2023-10-08T03:40:53;8.17;;;3.47;;
1699;SDS011;847;48.058;7.810;2023-10-08T03:43:22;6.50;;;4.20;;
1699;SDS011;847;48.058;7.810;2023-10-08T03:45:59;5.30;;;3.10;;
1699;SDS011;847;48.058;7.810;2023-10-08T03:48:32;5.90;;;4.17;;
1699;SDS011;847;48.058;7.810;2023-10-08T03:51:01;6.73;;;4.07;;
1699;SDS011;847;48.058;7.810;2023-10-08T03:53:36;5.40;;;3.53;;
1699;SDS011;847;48.058;7.810;2023-10-08T03:56:17;6.63;;;3.83;;
1699;SDS011;847;48.058;7.810;2023-10-08T03:58:44;7.80;;;3.50;;
1699;SDS011;847;48.058;7.810;2023-10-08T04:01:12;7.93;;;3.90;;
1699;SDS011;847;48.058;7.810;2023-10-08T04:03:45;5.07;;;3.73;;
1699;SDS011;847;48.058;7.810;2023-10-08T04:06:23;5.80;;;3.40;;
1699;SDS011;847;48.058;7.810;2023-10-08T04:08:55;6.47;;;3.70;;
1699;SDS011;847;48.058;7.810;2023-10-08T04:11:36;5.23;;;3.60;;
1699;SDS011;847;48.058;7.810;2023-10-08T04:14:16;5.90;;;3.80;;
1699;SDS011;847;48.058;7.810;2023-10-08T04:16:44;5.40;;;3.60;;
1699;SDS011;847;48.058;7.810;2023-10-08T04:19:12;7.07;;;4.87;;
1699;SDS011;847;48.058;7.810;2023-10-08T04:21:43;6.10;;;4.07;;
1699;SDS011;847;48.058;7.810;2023-10-08T04:24:11;6.47;;;3.30;;
1699;SDS011;847;48.058;7.810;2023-10-08T04:26:40;10.33;;;3.90;;
1699;SDS011;847;48.058;7.810;2023-10-08T04:29:07;5.47;;;3.90;;
1699;SDS011;847;48.058;7.810;2023-10-08T04:31:34;7.87;;;3.97;;
1699;SDS011;847;48.058;7.810;2023-10-08T04:34:03;6.10;;;3.27;;
1699;SDS011;847;48.058;7.810;2023-10-08T04:36:36;10.53;;;4.53;;
1699;SDS011;847;48.058;7.810;2023-10-08T04:39:04;5.13;;;3.77;;
1699;SDS011;847;48.058;7.810;2023-10-08T04:41:38;6.97;;;4.13;;
1699;SDS011;847;48.058;7.810;2023-10-08T04:44:07;7.37;;;4.63;;
1699;SDS011;847;48.058;7.810;2023-10-08T04:46:39;7.63;;;3.93;;
1699;SDS011;847;48.058;7.810;2023-10-08T04:49:13;5.73;;;4.20;;
1699;SDS011;847;48.058;7.810;2023-10-08T04:51:54;10.07;;;4.37;;
1699;SDS011;847;48.058;7.810;2023-10-08T04:54:25;8.37;;;4.10;;
1699;SDS011;847;48.058;7.810;2023-10-08T04:56:55;6.73;;;4.20;;
1699;SDS011;847;48.058;7.810;2023-10-08T04:59:24;6.63;;;3.33;;
1699;SDS011;847;48.058;7.810;2023-10-08T05:01:58;8.10;;;4.10;;
1699;SDS011;847;48.058;7.810;2023-10-08T05:04:44;6.90;;;4.40;;
1699;SDS011;847;48.058;7.810;2023-10-08T05:07:23;6.20;;;4.03;;
1699;SDS011;847;48.058;7.810;2023-10-08T05:10:22;10.67;;;4.83;;
1699;SDS011;847;48.058;7.810;2023-10-08T05:13:06;10.37;;;5.13;;
1699;SDS011;847;48.058;7.810;2023-10-08T05:15:42;6.97;;;3.80;;
1699;SDS011;847;48.058;7.810;2023-10-08T05:18:27;8.40;;;4.20;;
1699;SDS011;847;48.058;7.810;2023-10-08T05:21:14;8.40;;;4.20;;
1699;SDS011;847;48.058;7.810;2023-10-08T05:23:52;7.70;;;4.57;;
1699;SDS011;847;48.058;7.810;2023-10-08T05:26:40;5.90;;;4.17;;
1699;SDS011;847;48.058;7.810;2023-10-08T05:29:14;9.23;;;5.23;;
1699;SDS011;847;48.058;7.810;2023-10-08T05:31:58;5.50;;;4.27;;
1699;SDS011;847;48.058;7.810;2023-10-08T05:34:40;5.80;;;3.97;;
1699;SDS011;847;48.058;7.810;2023-10-08T05:37:16;5.73;;;3.70;;
1699;SDS011;847;48.058;7.810;2023-10-08T05:40:04;5.57;;;4.23;;
1699;SDS011;847;48.058;7.810;2023-10-08T05:42:46;9.27;;;4.60;;
1699;SDS011;847;48.058;7.810;2023-10-08T05:45:14;8.03;;;4.00;;
1699;SDS011;847;48.058;7.810;2023-10-08T05:47:54;6.60;;;3.90;;
1699;SDS011;847;48.058;7.810;2023-10-08T05:50:39;8.00;;;4.10;;
1699;SDS011;847;48.058;7.810;2023-10-08T05:53:08;7.93;;;4.00;;
1699;SDS011;847;48.058;7.810;2023-10-08T05:55:46;7.10;;;3.40;;
1699;SDS011;847;48.058;7.810;2023-10-08T05:58:26;8.30;;;3.50;;
1699;SDS011;847;48.058;7.810;2023-10-08T06:01:00;4.30;;;3.60;;
1699;SDS011;847;48.058;7.810;2023-10-08T06:03:34;5.93;;;3.53;;
1699;SDS011;847;48.058;7.810;2023-10-08T06:06:14;7.90;;;4.37;;
1699;SDS011;847;48.058;7.810;2023-10-08T06:09:01;9.83;;;4.20;;
1699;SDS011;847;48.058;7.810;2023-10-08T06:11:47;7.13;;;4.17;;
1699;SDS011;847;48.058;7.810;2023-10-08T06:14:34;6.00;;;3.70;;
1699;SDS011;847;48.058;7.810;2023-10-08T06:17:33;6.47;;;4.00;;
1699;SDS011;847;48.058;7.810;2023-10-08T06:20:20;6.63;;;3.73;;
1699;SDS011;847;48.058;7.810;2023-10-08T06:22:50;8.83;;;4.00;;
1699;SDS011;847;48.058;7.810;2023-10-08T06:25:24;7.17;;;3.80;;
1699;SDS011;847;48.058;7.810;2023-10-08T06:27:54;7.20;;;3.97;;
1699;SDS011;847;48.058;7.810;2023-10-08T06:30:22;7.63;;;4.33;;
1699;SDS011;847;48.058;7.810;2023-10-08T06:32:50;6.93;;;3.90;;
1699;SDS011;847;48.058;7.810;2023-10-08T06:35:18;7.70;;;5.30;;
1699;SDS011;847;48.058;7.810;2023-10-08T06:37:50;6.10;;;3.87;;
1699;SDS011;847;48.058;7.810;2023-10-08T06:40:19;6.20;;;3.70;;
1699;SDS011;847;48.058;7.810;2023-10-08T06:43:07;6.70;;;4.20;;
1699;SDS011;847;48.058;7.810;2023-10-08T06:45:47;7.17;;;4.30;;
1699;SDS011;847;48.058;7.810;2023-10-08T06:48:17;5.87;;;3.90;;
1699;SDS011;847;48.058;7.810;2023-10-08T06:50:46;7.77;;;4.20;;
1699;SDS011;847;48.058;7.810;2023-10-08T06:53:14;6.53;;;4.10;;
1699;SDS011;847;48.058;7.810;2023-10-08T06:55:43;7.53;;;4.07;;
1699;SDS011;847;48.058;7.810;2023-10-08T06:58:14;6.13;;;4.53;;
1699;SDS011;847;48.058;7.810;2023-10-08T07:00:43;6.70;;;4.10;;
1699;SDS011;847;48.058;7.810;2023-10-08T07:03:14;6.43;;;5.10;;
1699;SDS011;847;48.058;7.810;2023-10-08T07:05:43;9.93;;;5.23;;
1699;SDS011;847;48.058;7.810;2023-10-08T07:08:19;6.80;;;4.50;;
1699;SDS011;847;48.058;7.810;2023-10-08T07:10:48;7.00;;;4.80;;
1699;SDS011;847;48.058;7.810;2023-10-08T07:13:17;7.17;;;5.20;;
1699;SDS011;847;48.058;7.810;2023-10-08T07:15:46;6.07;;;4.43;;
1699;SDS011;847;48.058;7.810;2023-10-08T07:18:14;5.97;;;5.37;;
1699;SDS011;847;48.058;7.810;2023-10-08T07:20:47;9.63;;;5.00;;
1699;SDS011;847;48.058;7.810;2023-10-08T07:23:19;7.07;;;5.10;;
1699;SDS011;847;48.058;7.810;2023-10-08T07:25:53;9.40;;;5.33;;
1699;SDS011;847;48.058;7.810;2023-10-08T07:28:31;7.17;;;4.47;;
1699;SDS011;847;48.058;7.810;2023-10-08T07:30:58;6.57;;;5.00;;
1699;SDS011;847;48.058;7.810;2023-10-08T07:33:27;8.33;;;5.30;;
1699;SDS011;847;48.058;7.810;2023-10-08T07:36:01;9.60;;;5.03;;
1699;SDS011;847;48.058;7.810;2023-10-08T07:38:37;9.27;;;4.80;;
1699;SDS011;847;48.058;7.810;2023-10-08T07:41:04;11.03;;;7.27;;
1699;SDS011;847;48.058;7.810;2023-10-08T07:43:32;9.80;;;5.07;;
1699;SDS011;847;48.058;7.810;2023-10-08T07:46:00;9.50;;;5.57;;
1699;SDS011;847;48.058;7.810;2023-10-08T07:48:27;8.63;;;5.27;;
1699;SDS011;847;48.058;7.810;2023-10-08T07:50:56;8.30;;;4.83;;
1699;SDS011;847;48.058;7.810;2023-10-08T07:53:23;7.60;;;5.10;;
1699;SDS011;847;48.058;7.810;2023-10-08T07:55:51;8.37;;;5.10;;
1699;SDS011;847;48.058;7.810;2023-10-08T07:58:18;10.17;;;5.87;;
1699;SDS011;847;48.058;7.810;2023-10-08T08:00:46;7.97;;;5.20;;
1699;SDS011;847;48.058;7.810;2023-10-08T08:03:20;8.60;;;5.43;;
1699;SDS011;847;48.058;7.810;2023-10-08T08:05:47;8.70;;;4.93;;
1699;SDS011;847;48.058;7.810;2023-10-08T08:08:21;9.03;;;5.70;;
1699;SDS011;847;48.058;7.810;2023-10-08T08:10:52;6.53;;;4.57;;
1699;SDS011;847;48.058;7.810;2023-10-08T08:13:28;10.53;;;4.80;;
1699;SDS011;847;48.058;7.810;2023-10-08T08:15:56;6.00;;;4.13;;
1699;SDS011;847;48.058;7.810;2023-10-08T08:18:25;8.73;;;4.77;;
1699;SDS011;847;48.058;7.810;2023-10-08T08:20:58;6.40;;;4.10;;
1699;SDS011;847;48.058;7.810;2023-10-08T08:23:27;7.43;;;4.43;;
1699;SDS011;847;48.058;7.810;2023-10-08T08:25:57;9.97;;;4.00;;
1699;SDS011;847;48.058;7.810;2023-10-08T08:28:37;6.43;;;4.23;;
1699;SDS011;847;48.058;7.810;2023-10-08T08:31:07;9.13;;;4.50;;
1699;SDS011;847;48.058;7.810;2023-10-08T08:33:38;6.90;;;3.83;;
1699;SDS011;847;48.058;7.810;2023-10-08T08:36:18;7.93;;;4.10;;
1699;SDS011;847;48.058;7.810;2023-10-08T08:38:46;12.00;;;5.17;;
1699;SDS011;847;48.058;7.810;2023-10-08T08:41:13;7.43;;;4.10;;
1699;SDS011;847;48.058;7.810;2023-10-08T08:43:43;8.17;;;3.80;;
1699;SDS011;847;48.058;7.810;2023-10-08T08:46:14;9.03;;;4.77;;
1699;SDS011;847;48.058;7.810;2023-10-08T08:48:41;5.20;;;3.60;;
1699;SDS011;847;48.058;7.810;2023-10-08T08:51:10;7.20;;;4.00;;
1699;SDS011;847;48.058;7.810;2023-10-08T08:53:38;6.80;;;3.73;;
1699;SDS011;847;48.058;7.810;2023-10-08T08:56:06;10.07;;;4.83;;
1699;SDS011;847;48.058;7.810;2023-10-08T08:58:35;11.93;;;4.63;;
1699;SDS011;847;48.058;7.810;2023-10-08T09:01:03;7.97;;;4.23;;
1699;SDS011;847;48.058;7.810;2023-10-08T09:03:34;6.40;;;4.27;;
1699;SDS011;847;48.058;7.810;2023-10-08T09:06:02;7.17;;;4.10;;
1699;SDS011;847;48.058;7.810;2023-10-08T09:08:32;9.43;;;4.73;;
1699;SDS011;847;48.058;7.810;2023-10-08T09:11:00;6.73;;;4.17;;
1699;SDS011;847;48.058;7.810;2023-10-08T09:13:29;6.53;;;3.80;;
1699;SDS011;847;48.058;7.810;2023-10-08T09:15:57;8.33;;;3.90;;
1699;SDS011;847;48.058;7.810;2023-10-08T09:18:29;6.97;;;4.10;;
1699;SDS011;847;48.058;7.810;2023-10-08T09:21:07;10.37;;;4.70;;
1699;SDS011;847;48.058;7.810;2023-10-08T09:23:38;7.23;;;3.80;;
1699;SDS011;847;48.058;7.810;2023-10-08T09:26:08;8.47;;;3.87;;
1699;SDS011;847;48.058;7.810;2023-10-08T09:28:35;8.30;;;4.73;;
1699;SDS011;847;48.058;7.810;2023-10-08T09:31:03;7.93;;;4.03;;
1699;SDS011;847;48.058;7.810;2023-10-08T09:33:31;13.70;;;5.07;;
1699;SDS011;847;48.058;7.810;2023-10-08T09:35:58;10.20;;;4.33;;
1699;SDS011;847;48.058;7.810;2023-10-08T09:38:31;10.50;;;4.27;;
1699;SDS011;847;48.058;7.810;2023-10-08T09:40:59;8.57;;;3.90;;
1699;SDS011;847;48.058;7.810;2023-10-08T09:43:27;7.37;;;3.90;;
1699;SDS011;847;48.058;7.810;2023-10-08T09:45:59;7.23;;;4.77;;
1699;SDS011;847;48.058;7.810;2023-10-08T09:48:32;9.37;;;4.30;;
1699;SDS011;847;48.058;7.810;2023-10-08T09:51:03;8.73;;;4.93;;
1699;SDS011;847;48.058;7.810;2023-10-08T09:53:35;6.20;;;3.60;;
1699;SDS011;847;48.058;7.810;2023-10-08T09:56:11;8.47;;;3.90;;
1699;SDS011;847;48.058;7.810;2023-10-08T09:58:40;7.87;;;4.20;;
1699;SDS011;847;48.058;7.810;2023-10-08T10:01:08;8.97;;;4.37;;
1699;SDS011;847;48.058;7.810;2023-10-08T10:03:36;13.50;;;5.33;;
1699;SDS011;847;48.058;7.810;2023-10-08T10:06:04;7.50;;;4.67;;
1699;SDS011;847;48.058;7.810;2023-10-08T10:08:38;6.33;;;3.43;;
1699;SDS011;847;48.058;7.810;2023-10-08T10:11:06;8.13;;;3.80;;
1699;SDS011;847;48.058;7.810;2023-10-08T10:13:34;12.47;;;4.40;;
1699;SDS011;847;48.058;7.810;2023-10-08T10:16:05;7.07;;;3.80;;
1699;SDS011;847;48.058;7.810;2023-10-08T10:18:33;8.47;;;4.60;;
1699;SDS011;847;48.058;7.810;2023-10-08T10:21:00;6.83;;;4.17;;
1699;SDS011;847;48.058;7.810;2023-10-08T10:23:53;10.97;;;3.47;;
1699;SDS011;847;48.058;7.810;2023-10-08T10:26:23;7.77;;;3.67;;
1699;SDS011;847;48.058;7.810;2023-10-08T10:31:45;10.87;;;4.07;;
1699;SDS011;847;48.058;7.810;2023-10-08T10:34:16;11.63;;;6.40;;
1699;SDS011;847;48.058;7.810;2023-10-08T10:36:45;8.13;;;4.17;;
1699;SDS011;847;48.058;7.810;2023-10-08T10:39:16;10.03;;;3.93;;
1699;SDS011;847;48.058;7.810;2023-10-08T10:41:51;7.53;;;4.83;;
1699;SDS011;847;48.058;7.810;2023-10-08T10:44:22;7.17;;;4.07;;
1699;SDS011;847;48.058;7.810;2023-10-08T10:46:49;8.60;;;3.63;;
1699;SDS011;847;48.058;7.810;2023-10-08T10:49:16;8.90;;;4.13;;
1699;SDS011;847;48.058;7.810;2023-10-08T10:51:44;8.17;;;3.60;;
1699;SDS011;847;48.058;7.810;2023-10-08T10:54:12;9.27;;;4.07;;
1699;SDS011;847;48.058;7.810;2023-10-08T10:56:46;5.80;;;3.90;;
1699;SDS011;847;48.058;7.810;2023-10-08T10:59:18;7.60;;;3.87;;
1699;SDS011;847;48.058;7.810;2023-10-08T11:01:46;8.43;;;3.70;;
1699;SDS011;847;48.058;7.810;2023-10-08T11:04:17;8.90;;;4.03;;
1699;SDS011;847;48.058;7.810;2023-10-08T11:06:45;9.27;;;3.57;;
1699;SDS011;847;48.058;7.810;2023-10-08T11:09:17;9.67;;;4.80;;
1699;SDS011;847;48.058;7.810;2023-10-08T11:12:01;8.73;;;3.50;;
1699;SDS011;847;48.058;7.810;2023-10-08T11:14:36;9.90;;;4.03;;
1699;SDS011;847;48.058;7.810;2023-10-08T11:17:09;11.47;;;4.70;;
1699;SDS011;847;48.058;7.810;2023-10-08T11:19:40;6.57;;;3.30;;
1699;SDS011;847;48.058;7.810;2023-10-08T11:22:07;10.53;;;4.27;;
1699;SDS011;847;48.058;7.810;2023-10-08T11:24:42;8.13;;;3.53;;
1699;SDS011;847;48.058;7.810;2023-10-08T11:27:12;10.03;;;4.43;;
1699;SDS011;847;48.058;7.810;2023-10-08T11:29:43;7.40;;;3.57;;
1699;SDS011;847;48.058;7.810;2023-10-08T11:32:12;6.50;;;3.83;;
1699;SDS011;847;48.058;7.810;2023-10-08T11:34:40;8.30;;;3.40;;
1699;SDS011;847;48.058;7.810;2023-10-08T11:37:08;6.40;;;3.23;;
1699;SDS011;847;48.058;7.810;2023-10-08T11:39:47;10.70;;;4.10;;
1699;SDS011;847;48.058;7.810;2023-10-08T11:42:15;6.87;;;3.60;;
1699;SDS011;847;48.058;7.810;2023-10-08T11:45:05;7.40;;;4.17;;
1699;SDS011;847;48.058;7.810;2023-10-08T11:47:49;6.97;;;3.90;;
1699;SDS011;847;48.058;7.810;2023-10-08T11:50:22;10.60;;;4.40;;
1699;SDS011;847;48.058;7.810;2023-10-08T11:52:55;10.80;;;3.60;;
1699;SDS011;847;48.058;7.810;2023-10-08T11:55:28;9.40;;;3.63;;
1699;SDS011;847;48.058;7.810;2023-10-08T11:57:55;7.77;;;3.77;;
1699;SDS011;847;48.058;7.810;2023-10-08T12:00:22;8.80;;;3.40;;
1699;SDS011;847;48.058;7.810;2023-10-08T12:02:50;11.67;;;3.87;;
1699;SDS011;847;48.058;7.810;2023-10-08T12:05:19;6.87;;;3.33;;
1699;SDS011;847;48.058;7.810;2023-10-08T12:07:48;9.83;;;3.50;;
1699;SDS011;847;48.058;7.810;2023-10-08T12:10:17;7.60;;;2.80;;
1699;SDS011;847;48.058;7.810;2023-10-08T12:12:48;6.87;;;3.20;;
1699;SDS011;847;48.058;7.810;2023-10-08T12:15:17;11.63;;;3.90;;
1699;SDS011;847;48.058;7.810;2023-10-08T12:17:46;6.97;;;3.20;;
1699;SDS011;847;48.058;7.810;2023-10-08T12:20:33;6.70;;;3.37;;
1699;SDS011;847;48.058;7.810;2023-10-08T12:23:02;5.50;;;3.00;;
1699;SDS011;847;48.058;7.810;2023-10-08T12:25:29;10.30;;;3.23;;
1699;SDS011;847;48.058;7.810;2023-10-08T12:27:58;8.63;;;4.20;;
1699;SDS011;847;48.058;7.810;2023-10-08T12:30:27;6.67;;;3.40;;
1699;SDS011;847;48.058;7.810;2023-10-08T12:32:56;7.17;;;3.60;;
1699;SDS011;847;48.058;7.810;2023-10-08T12:35:24;8.80;;;3.70;;
1699;SDS011;847;48.058;7.810;2023-10-08T12:37:53;9.87;;;3.90;;
1699;SDS011;847;48.058;7.810;2023-10-08T12:40:20;9.63;;;3.70;;
1699;SDS011;847;48.058;7.810;2023-10-08T12:42:48;13.93;;;4.43;;
1699;SDS011;847;48.058;7.810;2023-10-08T12:45:17;9.40;;;3.57;;
1699;SDS011;847;48.058;7.810;2023-10-08T12:47:47;11.80;;;4.23;;
1699;SDS011;847;48.058;7.810;2023-10-08T12:50:15;13.17;;;4.20;;
1699;SDS011;847;48.058;7.810;2023-10-08T12:52:48;11.60;;;4.30;;
1699;SDS011;847;48.058;7.810;2023-10-08T12:55:20;10.37;;;3.10;;
1699;SDS011;847;48.058;7.810;2023-10-08T12:57:49;12.40;;;4.63;;
1699;SDS011;847;48.058;7.810;2023-10-08T13:00:21;13.20;;;4.20;;
1699;SDS011;847;48.058;7.810;2023-10-08T13:02:49;9.57;;;4.10;;
1699;SDS011;847;48.058;7.810;2023-10-08T13:05:18;13.30;;;4.13;;
1699;SDS011;847;48.058;7.810;2023-10-08T13:07:52;13.10;;;4.47;;
1699;SDS011;847;48.058;7.810;2023-10-08T13:10:20;15.53;;;4.70;;
1699;SDS011;847;48.058;7.810;2023-10-08T13:12:47;15.67;;;3.40;;
1699;SDS011;847;48.058;7.810;2023-10-08T13:15:14;14.03;;;4.80;;
1699;SDS011;847;48.058;7.810;2023-10-08T13:17:42;7.40;;;3.80;;
1699;SDS011;847;48.058;7.810;2023-10-08T13:20:11;14.90;;;5.33;;
1699;SDS011;847;48.058;7.810;2023-10-08T13:22:38;14.27;;;4.63;;
1699;SDS011;847;48.058;7.810;2023-10-08T13:25:05;9.80;;;3.73;;
1699;SDS011;847;48.058;7.810;2023-10-08T13:27:33;8.60;;;3.83;;
1699;SDS011;847;48.058;7.810;2023-10-08T13:30:04;5.97;;;4.03;;
1699;SDS011;847;48.058;7.810;2023-10-08T13:32:33;9.37;;;3.80;;
1699;SDS011;847;48.058;7.810;2023-10-08T13:35:03;11.50;;;4.80;;
1699;SDS011;847;48.058;7.810;2023-10-08T13:37:32;12.90;;;5.03;;
1699;SDS011;847;48.058;7.810;2023-10-08T13:40:00;9.10;;;4.53;;
1699;SDS011;847;48.058;7.810;2023-10-08T13:42:27;6.13;;;3.27;;
1699;SDS011;847;48.058;7.810;2023-10-08T13:44:54;11.07;;;4.47;;
1699;SDS011;847;48.058;7.810;2023-10-08T13:47:22;14.13;;;4.40;;
1699;SDS011;847;48.058;7.810;2023-10-08T13:49:50;11.17;;;3.90;;
1699;SDS011;847;48.058;7.810;2023-10-08T13:52:19;11.40;;;4.37;;
1699;SDS011;847;48.058;7.810;2023-10-08T13:54:51;10.77;;;4.60;;
1699;SDS011;847;48.058;7.810;2023-10-08T13:57:18;15.80;;;4.43;;
1699;SDS011;847;48.058;7.810;2023-10-08T13:59:45;11.73;;;4.10;;
1699;SDS011;847;48.058;7.810;2023-10-08T14:02:13;12.83;;;4.10;;
1699;SDS011;847;48.058;7.810;2023-10-08T14:04:40;9.93;;;4.10;;
1699;SDS011;847;48.058;7.810;2023-10-08T14:07:08;10.63;;;4.03;;
1699;SDS011;847;48.058;7.810;2023-10-08T14:09:38;13.97;;;5.43;;
1699;SDS011;847;48.058;7.810;2023-10-08T14:12:07;9.47;;;3.73;;
1699;SDS011;847;48.058;7.810;2023-10-08T14:14:35;12.70;;;4.20;;
1699;SDS011;847;48.058;7.810;2023-10-08T14:17:06;9.53;;;4.50;;
1699;SDS011;847;48.058;7.810;2023-10-08T14:19:39;10.60;;;4.27;;
1699;SDS011;847;48.058;7.810;2023-10-08T14:22:11;10.17;;;4.20;;
1699;SDS011;847;48.058;7.810;2023-10-08T14:24:41;12.30;;;4.53;;
1699;SDS011;847;48.058;7.810;2023-10-08T14:27:10;9.60;;;4.37;;
1699;SDS011;847;48.058;7.810;2023-10-08T14:29:40;12.50;;;4.10;;
1699;SDS011;847;48.058;7.810;2023-10-08T14:32:09;10.73;;;3.90;;
1699;SDS011;847;48.058;7.810;2023-10-08T14:34:36;11.73;;;4.10;;
1699;SDS011;847;48.058;7.810;2023-10-08T14:37:24;10.73;;;4.33;;
1699;SDS011;847;48.058;7.810;2023-10-08T14:40:10;13.20;;;4.80;;
1699;SDS011;847;48.058;7.810;2023-10-08T14:42:54;18.27;;;5.00;;
1699;SDS011;847;48.058;7.810;2023-10-08T14:45:21;13.73;;;4.80;;
1699;SDS011;847;48.058;7.810;2023-10-08T14:47:51;13.30;;;4.57;;
1699;SDS011;847;48.058;7.810;2023-10-08T14:50:19;20.90;;;3.87;;
1699;SDS011;847;48.058;7.810;2023-10-08T14:52:47;11.57;;;4.50;;
1699;SDS011;847;48.058;7.810;2023-10-08T14:55:15;14.67;;;5.10;;
1699;SDS011;847;48.058;7.810;2023-10-08T14:57:42;14.77;;;4.63;;
1699;SDS011;847;48.058;7.810;2023-10-08T15:00:09;14.73;;;5.20;;
1699;SDS011;847;48.058;7.810;2023-10-08T15:02:37;10.50;;;5.00;;
1699;SDS011;847;48.058;7.810;2023-10-08T15:05:04;14.90;;;4.43;;
1699;SDS011;847;48.058;7.810;2023-10-08T15:07:32;15.97;;;5.07;;
1699;SDS011;847;48.058;7.810;2023-10-08T15:09:58;9.57;;;5.20;;
1699;SDS011;847;48.058;7.810;2023-10-08T15:12:27;15.00;;;5.30;;
1699;SDS011;847;48.058;7.810;2023-10-08T15:14:59;11.37;;;5.30;;
1699;SDS011;847;48.058;7.810;2023-10-08T15:17:25;11.23;;;5.03;;
1699;SDS011;847;48.058;7.810;2023-10-08T15:19:54;11.53;;;5.80;;
1699;SDS011;847;48.058;7.810;2023-10-08T15:22:25;13.13;;;4.63;;
1699;SDS011;847;48.058;7.810;2023-10-08T15:24:51;13.77;;;5.40;;
1699;SDS011;847;48.058;7.810;2023-10-08T15:27:18;8.63;;;4.57;;
1699;SDS011;847;48.058;7.810;2023-10-08T15:29:46;15.80;;;4.83;;
1699;SDS011;847;48.058;7.810;2023-10-08T15:32:13;11.93;;;5.27;;
1699;SDS011;847;48.058;7.810;2023-10-08T15:34:40;12.73;;;4.73;;
1699;SDS011;847;48.058;7.810;2023-10-08T15:37:07;12.47;;;4.87;;
1699;SDS011;847;48.058;7.810;2023-10-08T15:39:34;11.47;;;5.00;;
1699;SDS011;847;48.058;7.810;2023-10-08T15:42:01;19.00;;;5.73;;
1699;SDS011;847;48.058;7.810;2023-10-08T15:44:28;10.53;;;4.37;;
1699;SDS011;847;48.058;7.810;2023-10-08T15:46:56;12.70;;;4.60;;
1699;SDS011;847;48.058;7.810;2023-10-08T15:49:23;9.13;;;4.47;;
1699;SDS011;847;48.058;7.810;2023-10-08T15:51:50;12.33;;;4.33;;
1699;SDS011;847;48.058;7.810;2023-10-08T15:54:17;12.53;;;4.80;;